sensor_id;sensor_type;location;lat;lon;timestamp;temperature;humidity
59660;DHT22;45534;52.690;6.268;2022-12-18T00:01:33;-3.00;99.90
59660;DHT22;45534;52.690;6.268;2022-12-18T00:04:00;-3.10;99.90
59660;DHT22;45534;52.690;6.268;2022-12-18T00:06:28;-3.10;99.90
59660;DHT22;45534;52.690;6.268;2022-12-18T00:08:55;-3.10;99.90
59660;DHT22;45534;52.690;6.268;2022-12-18T00:11:24;-3.10;99.90
59660;DHT22;45534;52.690;6.268;2022-12-18T00:13:50;-3.10;99.90
59660;DHT22;45534;52.690;6.268;2022-12-18T00:16:20;-3.10;99.90
59660;DHT22;45534;52.690;6.268;2022-12-18T00:18:47;-3.10;99.90
59660;DHT22;45534;52.690;6.268;2022-12-18T00:21:13;-3.10;99.90
59660;DHT22;45534;52.690;6.268;2022-12-18T00:23:41;-3.10;99.90
59660;DHT22;45534;52.690;6.268;2022-12-18T00:26:11;-3.10;99.90
59660;DHT22;45534;52.690;6.268;2022-12-18T00:28:41;-3.20;99.90
59660;DHT22;45534;52.690;6.268;2022-12-18T00:31:13;-3.20;99.90
59660;DHT22;45534;52.690;6.268;2022-12-18T00:33:39;-3.20;99.90
59660;DHT22;45534;52.690;6.268;2022-12-18T00:36:07;-3.20;99.90
59660;DHT22;45534;52.690;6.268;2022-12-18T00:38:34;-3.20;99.90
59660;DHT22;45534;52.690;6.268;2022-12-18T00:41:00;-3.20;99.90
59660;DHT22;45534;52.690;6.268;2022-12-18T00:43:26;-3.20;99.90
59660;DHT22;45534;52.690;6.268;2022-12-18T00:45:52;-3.20;99.90
59660;DHT22;45534;52.690;6.268;2022-12-18T00:48:18;-3.20;99.90
59660;DHT22;45534;52.690;6.268;2022-12-18T00:50:44;-3.20;99.90
59660;DHT22;45534;52.690;6.268;2022-12-18T00:53:09;-3.20;99.90
59660;DHT22;45534;52.690;6.268;2022-12-18T00:55:37;-3.30;99.90
59660;DHT22;45534;52.690;6.268;2022-12-18T00:58:03;-3.30;99.90
59660;DHT22;45534;52.690;6.268;2022-12-18T01:00:28;-3.30;99.90
59660;DHT22;45534;52.690;6.268;2022-12-18T01:02:54;-3.30;99.90
59660;DHT22;45534;52.690;6.268;2022-12-18T01:05:20;-3.40;99.90
59660;DHT22;45534;52.690;6.268;2022-12-18T01:07:45;-3.40;99.90
59660;DHT22;45534;52.690;6.268;2022-12-18T01:10:12;-3.40;99.90
59660;DHT22;45534;52.690;6.268;2022-12-18T01:12:38;-3.50;99.90
59660;DHT22;45534;52.690;6.268;2022-12-18T01:15:05;-3.50;99.90
59660;DHT22;45534;52.690;6.268;2022-12-18T01:17:32;-3.50;99.90
59660;DHT22;45534;52.690;6.268;2022-12-18T01:19:58;-3.50;99.90
59660;DHT22;45534;52.690;6.268;2022-12-18T01:22:23;-3.60;99.90
59660;DHT22;45534;52.690;6.268;2022-12-18T01:24:49;-3.60;99.90
59660;DHT22;45534;52.690;6.268;2022-12-18T01:27:15;-3.70;99.90
59660;DHT22;45534;52.690;6.268;2022-12-18T01:29:41;-3.80;99.90
59660;DHT22;45534;52.690;6.268;2022-12-18T01:32:07;-3.80;99.90
59660;DHT22;45534;52.690;6.268;2022-12-18T01:34:33;-3.90;99.90
59660;DHT22;45534;52.690;6.268;2022-12-18T01:37:02;-3.90;99.90
59660;DHT22;45534;52.690;6.268;2022-12-18T01:39:28;-4.00;99.90
59660;DHT22;45534;52.690;6.268;2022-12-18T01:41:54;-4.00;99.90
59660;DHT22;45534;52.690;6.268;2022-12-18T01:45:04;-4.00;99.90
59660;DHT22;45534;52.690;6.268;2022-12-18T01:47:48;-4.00;99.90
59660;DHT22;45534;52.690;6.268;2022-12-18T01:52:50;-4.10;99.90
59660;DHT22;45534;52.690;6.268;2022-12-18T01:55:20;-4.10;99.90
59660;DHT22;45534;52.690;6.268;2022-12-18T01:57:47;-4.20;99.90
59660;DHT22;45534;52.690;6.268;2022-12-18T02:00:16;-4.30;99.90
59660;DHT22;45534;52.690;6.268;2022-12-18T02:02:44;-4.30;99.90
59660;DHT22;45534;52.690;6.268;2022-12-18T02:05:12;-4.30;99.90
59660;DHT22;45534;52.690;6.268;2022-12-18T02:07:46;-4.40;99.90
59660;DHT22;45534;52.690;6.268;2022-12-18T02:13:15;-4.40;99.90
59660;DHT22;45534;52.690;6.268;2022-12-18T02:18:21;-4.50;99.90
59660;DHT22;45534;52.690;6.268;2022-12-18T02:21:12;-4.60;99.90
59660;DHT22;45534;52.690;6.268;2022-12-18T02:23:48;-4.60;99.90
59660;DHT22;45534;52.690;6.268;2022-12-18T02:26:24;-4.60;99.90
59660;DHT22;45534;52.690;6.268;2022-12-18T02:29:00;-4.60;99.90
59660;DHT22;45534;52.690;6.268;2022-12-18T02:31:31;-4.60;99.90
59660;DHT22;45534;52.690;6.268;2022-12-18T02:34:01;-4.70;99.90
59660;DHT22;45534;52.690;6.268;2022-12-18T02:36:28;-4.70;99.90
59660;DHT22;45534;52.690;6.268;2022-12-18T02:38:56;-4.70;99.90
59660;DHT22;45534;52.690;6.268;2022-12-18T02:41:22;-4.70;99.90
59660;DHT22;45534;52.690;6.268;2022-12-18T02:43:56;-4.70;99.90
59660;DHT22;45534;52.690;6.268;2022-12-18T02:46:39;-4.70;99.90
59660;DHT22;45534;52.690;6.268;2022-12-18T02:58:05;-4.90;99.90
59660;DHT22;45534;52.690;6.268;2022-12-18T03:02:57;-4.90;99.90
59660;DHT22;45534;52.690;6.268;2022-12-18T03:05:38;-4.90;99.90
59660;DHT22;45534;52.690;6.268;2022-12-18T03:08:08;-5.00;99.90
59660;DHT22;45534;52.690;6.268;2022-12-18T03:10:41;-4.90;99.90
59660;DHT22;45534;52.690;6.268;2022-12-18T03:13:16;-4.90;99.90
59660;DHT22;45534;52.690;6.268;2022-12-18T03:15:48;-4.90;99.90
59660;DHT22;45534;52.690;6.268;2022-12-18T03:18:21;-4.90;99.90
59660;DHT22;45534;52.690;6.268;2022-12-18T03:20:49;-4.90;99.90
59660;DHT22;45534;52.690;6.268;2022-12-18T03:23:22;-4.90;99.90
59660;DHT22;45534;52.690;6.268;2022-12-18T03:25:52;-4.90;99.90
59660;DHT22;45534;52.690;6.268;2022-12-18T03:28:21;-4.90;99.90
59660;DHT22;45534;52.690;6.268;2022-12-18T03:30:53;-4.90;99.90
59660;DHT22;45534;52.690;6.268;2022-12-18T03:33:27;-4.90;99.90
59660;DHT22;45534;52.690;6.268;2022-12-18T03:35:55;-4.90;99.90
59660;DHT22;45534;52.690;6.268;2022-12-18T03:38:21;-4.90;99.90
59660;DHT22;45534;52.690;6.268;2022-12-18T03:41:09;-4.90;99.90
59660;DHT22;45534;52.690;6.268;2022-12-18T03:46:12;-4.90;99.90
59660;DHT22;45534;52.690;6.268;2022-12-18T03:48:47;-4.90;99.90
59660;DHT22;45534;52.690;6.268;2022-12-18T03:51:28;-4.90;99.90
59660;DHT22;45534;52.690;6.268;2022-12-18T03:54:02;-5.00;99.90
59660;DHT22;45534;52.690;6.268;2022-12-18T03:56:29;-5.00;99.90
59660;DHT22;45534;52.690;6.268;2022-12-18T03:58:57;-5.00;99.90
59660;DHT22;45534;52.690;6.268;2022-12-18T04:01:37;-5.00;99.90
59660;DHT22;45534;52.690;6.268;2022-12-18T04:04:04;-5.00;99.90
59660;DHT22;45534;52.690;6.268;2022-12-18T04:06:31;-5.00;99.90
59660;DHT22;45534;52.690;6.268;2022-12-18T04:08:58;-5.00;99.90
59660;DHT22;45534;52.690;6.268;2022-12-18T04:11:24;-5.10;99.90
59660;DHT22;45534;52.690;6.268;2022-12-18T04:13:50;-5.00;99.90
59660;DHT22;45534;52.690;6.268;2022-12-18T04:16:20;-5.00;99.90
59660;DHT22;45534;52.690;6.268;2022-12-18T04:18:45;-5.00;99.90
59660;DHT22;45534;52.690;6.268;2022-12-18T04:21:11;-5.00;99.90
59660;DHT22;45534;52.690;6.268;2022-12-18T04:23:37;-5.00;99.90
59660;DHT22;45534;52.690;6.268;2022-12-18T04:26:02;-5.00;99.90
59660;DHT22;45534;52.690;6.268;2022-12-18T04:28:28;-5.00;99.90
59660;DHT22;45534;52.690;6.268;2022-12-18T04:30:54;-5.10;99.90
59660;DHT22;45534;52.690;6.268;2022-12-18T04:33:19;-5.10;99.90
59660;DHT22;45534;52.690;6.268;2022-12-18T04:35:45;-5.10;99.90
59660;DHT22;45534;52.690;6.268;2022-12-18T04:38:11;-5.10;99.90
59660;DHT22;45534;52.690;6.268;2022-12-18T04:40:37;-5.20;99.90
59660;DHT22;45534;52.690;6.268;2022-12-18T04:43:03;-5.20;99.90
59660;DHT22;45534;52.690;6.268;2022-12-18T04:45:30;-5.20;99.90
59660;DHT22;45534;52.690;6.268;2022-12-18T04:48:00;-5.20;99.90
59660;DHT22;45534;52.690;6.268;2022-12-18T04:50:26;-5.30;99.90
59660;DHT22;45534;52.690;6.268;2022-12-18T04:52:52;-5.30;99.90
59660;DHT22;45534;52.690;6.268;2022-12-18T04:55:18;-5.30;99.90
59660;DHT22;45534;52.690;6.268;2022-12-18T04:57:44;-5.30;99.90
59660;DHT22;45534;52.690;6.268;2022-12-18T05:00:10;-5.30;99.90
59660;DHT22;45534;52.690;6.268;2022-12-18T05:02:36;-5.40;99.90
59660;DHT22;45534;52.690;6.268;2022-12-18T05:05:02;-5.40;99.90
59660;DHT22;45534;52.690;6.268;2022-12-18T05:07:27;-5.40;99.90
59660;DHT22;45534;52.690;6.268;2022-12-18T05:09:53;-5.50;99.90
59660;DHT22;45534;52.690;6.268;2022-12-18T05:12:19;-5.50;99.90
59660;DHT22;45534;52.690;6.268;2022-12-18T05:14:44;-5.50;99.90
59660;DHT22;45534;52.690;6.268;2022-12-18T05:17:10;-5.50;99.90
59660;DHT22;45534;52.690;6.268;2022-12-18T05:19:39;-5.60;99.90
59660;DHT22;45534;52.690;6.268;2022-12-18T05:22:04;-5.60;99.90
59660;DHT22;45534;52.690;6.268;2022-12-18T05:24:30;-5.60;99.90
59660;DHT22;45534;52.690;6.268;2022-12-18T05:26:56;-5.60;99.90
59660;DHT22;45534;52.690;6.268;2022-12-18T05:29:21;-5.70;99.90
59660;DHT22;45534;52.690;6.268;2022-12-18T05:31:47;-5.70;99.90
59660;DHT22;45534;52.690;6.268;2022-12-18T05:34:13;-5.70;99.90
59660;DHT22;45534;52.690;6.268;2022-12-18T05:36:38;-5.80;99.90
59660;DHT22;45534;52.690;6.268;2022-12-18T05:39:04;-5.80;99.90
59660;DHT22;45534;52.690;6.268;2022-12-18T05:41:30;-5.80;99.90
59660;DHT22;45534;52.690;6.268;2022-12-18T05:43:55;-5.80;99.90
59660;DHT22;45534;52.690;6.268;2022-12-18T05:46:21;-5.80;99.90
59660;DHT22;45534;52.690;6.268;2022-12-18T05:48:47;-5.90;99.90
59660;DHT22;45534;52.690;6.268;2022-12-18T05:51:15;-5.90;99.90
59660;DHT22;45534;52.690;6.268;2022-12-18T05:53:42;-6.00;99.90
59660;DHT22;45534;52.690;6.268;2022-12-18T05:56:19;-6.00;99.90
59660;DHT22;45534;52.690;6.268;2022-12-18T05:58:45;-6.00;99.90
59660;DHT22;45534;52.690;6.268;2022-12-18T06:01:14;-6.10;99.90
59660;DHT22;45534;52.690;6.268;2022-12-18T06:03:40;-6.10;99.90
59660;DHT22;45534;52.690;6.268;2022-12-18T06:06:24;-6.10;99.90
59660;DHT22;45534;52.690;6.268;2022-12-18T06:08:51;-6.10;99.90
59660;DHT22;45534;52.690;6.268;2022-12-18T06:11:20;-6.20;99.90
59660;DHT22;45534;52.690;6.268;2022-12-18T06:13:46;-6.20;99.90
59660;DHT22;45534;52.690;6.268;2022-12-18T06:16:12;-6.10;99.90
59660;DHT22;45534;52.690;6.268;2022-12-18T06:18:38;-6.10;99.90
59660;DHT22;45534;52.690;6.268;2022-12-18T06:21:04;-6.10;99.90
59660;DHT22;45534;52.690;6.268;2022-12-18T06:23:29;-6.10;99.90
59660;DHT22;45534;52.690;6.268;2022-12-18T06:25:55;-6.10;99.90
59660;DHT22;45534;52.690;6.268;2022-12-18T06:28:21;-6.10;99.90
59660;DHT22;45534;52.690;6.268;2022-12-18T06:30:47;-6.10;99.90
59660;DHT22;45534;52.690;6.268;2022-12-18T06:33:14;-6.10;99.90
59660;DHT22;45534;52.690;6.268;2022-12-18T06:35:40;-6.10;99.90
59660;DHT22;45534;52.690;6.268;2022-12-18T06:38:06;-6.10;99.90
59660;DHT22;45534;52.690;6.268;2022-12-18T06:40:31;-6.10;99.90
59660;DHT22;45534;52.690;6.268;2022-12-18T06:42:57;-6.10;99.90
59660;DHT22;45534;52.690;6.268;2022-12-18T06:45:23;-6.10;99.90
59660;DHT22;45534;52.690;6.268;2022-12-18T06:47:50;-6.10;99.90
59660;DHT22;45534;52.690;6.268;2022-12-18T06:50:16;-6.10;99.90
59660;DHT22;45534;52.690;6.268;2022-12-18T06:52:42;-6.10;99.90
59660;DHT22;45534;52.690;6.268;2022-12-18T06:55:10;-6.20;99.90
59660;DHT22;45534;52.690;6.268;2022-12-18T06:57:36;-6.20;99.90
59660;DHT22;45534;52.690;6.268;2022-12-18T07:00:05;-6.20;99.90
59660;DHT22;45534;52.690;6.268;2022-12-18T07:02:31;-6.20;99.90
59660;DHT22;45534;52.690;6.268;2022-12-18T07:04:57;-6.20;99.90
59660;DHT22;45534;52.690;6.268;2022-12-18T07:07:23;-6.20;99.90
59660;DHT22;45534;52.690;6.268;2022-12-18T07:09:51;-6.20;99.90
59660;DHT22;45534;52.690;6.268;2022-12-18T07:12:17;-6.20;99.90
59660;DHT22;45534;52.690;6.268;2022-12-18T07:14:43;-6.20;99.90
59660;DHT22;45534;52.690;6.268;2022-12-18T07:17:09;-6.20;99.90
59660;DHT22;45534;52.690;6.268;2022-12-18T07:19:34;-6.20;99.90
59660;DHT22;45534;52.690;6.268;2022-12-18T07:22:00;-6.20;99.90
59660;DHT22;45534;52.690;6.268;2022-12-18T07:24:26;-6.30;99.90
59660;DHT22;45534;52.690;6.268;2022-12-18T07:26:51;-6.20;99.90
59660;DHT22;45534;52.690;6.268;2022-12-18T07:29:17;-6.20;99.90
59660;DHT22;45534;52.690;6.268;2022-12-18T07:31:43;-6.20;99.90
59660;DHT22;45534;52.690;6.268;2022-12-18T07:34:12;-6.20;99.90
59660;DHT22;45534;52.690;6.268;2022-12-18T07:36:38;-6.20;99.90
59660;DHT22;45534;52.690;6.268;2022-12-18T07:39:04;-6.20;99.90
59660;DHT22;45534;52.690;6.268;2022-12-18T07:41:30;-6.20;99.90
59660;DHT22;45534;52.690;6.268;2022-12-18T07:43:55;-6.20;99.90
59660;DHT22;45534;52.690;6.268;2022-12-18T07:46:21;-6.20;99.90
59660;DHT22;45534;52.690;6.268;2022-12-18T07:48:47;-6.20;99.90
59660;DHT22;45534;52.690;6.268;2022-12-18T07:51:13;-6.20;99.90
59660;DHT22;45534;52.690;6.268;2022-12-18T07:53:39;-6.10;99.90
59660;DHT22;45534;52.690;6.268;2022-12-18T07:56:08;-6.10;99.90
59660;DHT22;45534;52.690;6.268;2022-12-18T07:58:35;-6.00;99.90
59660;DHT22;45534;52.690;6.268;2022-12-18T08:01:05;-6.00;99.90
59660;DHT22;45534;52.690;6.268;2022-12-18T08:03:31;-5.90;99.90
59660;DHT22;45534;52.690;6.268;2022-12-18T08:06:04;-5.90;99.90
59660;DHT22;45534;52.690;6.268;2022-12-18T08:08:30;-5.90;99.90
59660;DHT22;45534;52.690;6.268;2022-12-18T08:10:56;-5.80;99.90
59660;DHT22;45534;52.690;6.268;2022-12-18T08:13:22;-5.80;99.90
59660;DHT22;45534;52.690;6.268;2022-12-18T08:16:02;-5.70;99.90
59660;DHT22;45534;52.690;6.268;2022-12-18T08:18:28;-5.70;99.90
59660;DHT22;45534;52.690;6.268;2022-12-18T08:20:54;-5.60;99.90
59660;DHT22;45534;52.690;6.268;2022-12-18T08:23:21;-5.60;99.90
59660;DHT22;45534;52.690;6.268;2022-12-18T08:25:47;-5.50;99.90
59660;DHT22;45534;52.690;6.268;2022-12-18T08:28:13;-5.50;99.90
59660;DHT22;45534;52.690;6.268;2022-12-18T08:30:38;-5.50;99.90
59660;DHT22;45534;52.690;6.268;2022-12-18T08:33:04;-5.40;99.90
59660;DHT22;45534;52.690;6.268;2022-12-18T08:35:30;-5.40;99.90
59660;DHT22;45534;52.690;6.268;2022-12-18T08:37:59;-5.40;99.90
59660;DHT22;45534;52.690;6.268;2022-12-18T08:40:25;-5.40;99.90
59660;DHT22;45534;52.690;6.268;2022-12-18T08:42:50;-5.40;99.90
59660;DHT22;45534;52.690;6.268;2022-12-18T08:45:34;-5.30;99.90
59660;DHT22;45534;52.690;6.268;2022-12-18T08:48:00;-5.30;99.90
59660;DHT22;45534;52.690;6.268;2022-12-18T08:50:26;-5.30;99.90
59660;DHT22;45534;52.690;6.268;2022-12-18T08:52:51;-5.20;99.90
59660;DHT22;45534;52.690;6.268;2022-12-18T08:55:17;-5.10;99.90
59660;DHT22;45534;52.690;6.268;2022-12-18T08:57:43;-5.10;99.90
59660;DHT22;45534;52.690;6.268;2022-12-18T09:00:09;-5.00;99.90
59660;DHT22;45534;52.690;6.268;2022-12-18T09:02:35;-4.90;99.90
59660;DHT22;45534;52.690;6.268;2022-12-18T09:05:00;-4.80;99.90
59660;DHT22;45534;52.690;6.268;2022-12-18T09:07:26;-4.70;99.90
59660;DHT22;45534;52.690;6.268;2022-12-18T09:09:52;-4.60;99.90
59660;DHT22;45534;52.690;6.268;2022-12-18T09:12:17;-4.50;99.90
59660;DHT22;45534;52.690;6.268;2022-12-18T09:14:43;-4.30;99.90
59660;DHT22;45534;52.690;6.268;2022-12-18T09:17:09;-4.20;99.90
59660;DHT22;45534;52.690;6.268;2022-12-18T09:19:34;-4.10;99.90
59660;DHT22;45534;52.690;6.268;2022-12-18T09:22:00;-4.00;99.90
59660;DHT22;45534;52.690;6.268;2022-12-18T09:24:26;-3.90;99.90
59660;DHT22;45534;52.690;6.268;2022-12-18T09:26:54;-3.80;99.90
59660;DHT22;45534;52.690;6.268;2022-12-18T09:29:20;-3.60;99.90
59660;DHT22;45534;52.690;6.268;2022-12-18T09:31:46;-3.50;99.90
59660;DHT22;45534;52.690;6.268;2022-12-18T09:34:12;-3.40;99.90
59660;DHT22;45534;52.690;6.268;2022-12-18T09:36:38;-3.40;99.90
59660;DHT22;45534;52.690;6.268;2022-12-18T09:39:04;-3.30;99.90
59660;DHT22;45534;52.690;6.268;2022-12-18T09:41:39;-3.20;99.90
59660;DHT22;45534;52.690;6.268;2022-12-18T09:47:18;-3.10;99.90
59660;DHT22;45534;52.690;6.268;2022-12-18T09:49:49;-3.00;99.90
59660;DHT22;45534;52.690;6.268;2022-12-18T09:52:34;-2.90;99.90
59660;DHT22;45534;52.690;6.268;2022-12-18T09:57:53;-2.80;99.90
59660;DHT22;45534;52.690;6.268;2022-12-18T10:00:22;-2.80;99.90
59660;DHT22;45534;52.690;6.268;2022-12-18T10:02:49;-2.80;99.90
59660;DHT22;45534;52.690;6.268;2022-12-18T10:05:20;-2.80;99.90
59660;DHT22;45534;52.690;6.268;2022-12-18T10:08:03;-2.80;99.90
59660;DHT22;45534;52.690;6.268;2022-12-18T10:10:48;-2.70;99.90
59660;DHT22;45534;52.690;6.268;2022-12-18T10:15:54;-2.60;99.90
59660;DHT22;45534;52.690;6.268;2022-12-18T10:18:32;-2.60;99.90
59660;DHT22;45534;52.690;6.268;2022-12-18T10:21:11;-2.50;99.90
59660;DHT22;45534;52.690;6.268;2022-12-18T10:26:24;-2.40;99.90
59660;DHT22;45534;52.690;6.268;2022-12-18T10:28:51;-2.40;99.90
59660;DHT22;45534;52.690;6.268;2022-12-18T10:31:23;-2.30;99.90
59660;DHT22;45534;52.690;6.268;2022-12-18T10:33:49;-2.30;99.90
59660;DHT22;45534;52.690;6.268;2022-12-18T10:36:15;-2.20;99.90
59660;DHT22;45534;52.690;6.268;2022-12-18T10:38:41;-2.10;99.90
59660;DHT22;45534;52.690;6.268;2022-12-18T10:41:24;-2.10;99.90
59660;DHT22;45534;52.690;6.268;2022-12-18T10:44:22;-2.00;99.90
59660;DHT22;45534;52.690;6.268;2022-12-18T10:46:50;-2.00;99.90
59660;DHT22;45534;52.690;6.268;2022-12-18T10:49:31;-1.90;99.90
59660;DHT22;45534;52.690;6.268;2022-12-18T10:52:30;-1.90;99.90
59660;DHT22;45534;52.690;6.268;2022-12-18T10:54:58;-1.80;99.90
59660;DHT22;45534;52.690;6.268;2022-12-18T10:57:40;-1.80;99.90
59660;DHT22;45534;52.690;6.268;2022-12-18T11:00:26;-1.70;99.90
59660;DHT22;45534;52.690;6.268;2022-12-18T11:02:53;-1.70;99.90
59660;DHT22;45534;52.690;6.268;2022-12-18T11:05:34;-1.60;99.90
59660;DHT22;45534;52.690;6.268;2022-12-18T11:08:02;-1.60;99.90
59660;DHT22;45534;52.690;6.268;2022-12-18T11:10:37;-1.50;99.90
59660;DHT22;45534;52.690;6.268;2022-12-18T11:13:11;-1.50;99.90
59660;DHT22;45534;52.690;6.268;2022-12-18T11:15:40;-1.40;99.90
59660;DHT22;45534;52.690;6.268;2022-12-18T11:18:16;-1.40;99.90
59660;DHT22;45534;52.690;6.268;2022-12-18T11:20:42;-1.40;99.90
59660;DHT22;45534;52.690;6.268;2022-12-18T11:23:12;-1.30;99.90
59660;DHT22;45534;52.690;6.268;2022-12-18T11:25:39;-1.30;99.90
59660;DHT22;45534;52.690;6.268;2022-12-18T11:28:35;-1.20;99.90
59660;DHT22;45534;52.690;6.268;2022-12-18T11:31:27;-1.20;99.90
59660;DHT22;45534;52.690;6.268;2022-12-18T11:34:18;-1.20;99.90
59660;DHT22;45534;52.690;6.268;2022-12-18T11:36:48;-1.10;99.90
59660;DHT22;45534;52.690;6.268;2022-12-18T11:41:56;-1.10;99.90
59660;DHT22;45534;52.690;6.268;2022-12-18T11:47:49;-1.00;99.90
59660;DHT22;45534;52.690;6.268;2022-12-18T11:50:21;-1.00;99.90
59660;DHT22;45534;52.690;6.268;2022-12-18T11:52:49;-1.00;99.90
59660;DHT22;45534;52.690;6.268;2022-12-18T11:55:38;-1.00;99.90
59660;DHT22;45534;52.690;6.268;2022-12-18T11:58:18;-0.90;99.90
59660;DHT22;45534;52.690;6.268;2022-12-18T12:01:16;-0.90;99.90
59660;DHT22;45534;52.690;6.268;2022-12-18T12:09:04;-0.90;99.90
59660;DHT22;45534;52.690;6.268;2022-12-18T12:17:20;-0.80;99.90
59660;DHT22;45534;52.690;6.268;2022-12-18T12:20:08;-0.80;99.90
59660;DHT22;45534;52.690;6.268;2022-12-18T12:25:15;-0.70;99.90
59660;DHT22;45534;52.690;6.268;2022-12-18T12:27:47;-0.70;99.90
59660;DHT22;45534;52.690;6.268;2022-12-18T12:30:21;-0.60;99.90
59660;DHT22;45534;52.690;6.268;2022-12-18T12:38:41;-0.50;99.90
59660;DHT22;45534;52.690;6.268;2022-12-18T12:41:11;-0.50;99.90
59660;DHT22;45534;52.690;6.268;2022-12-18T12:43:58;-0.50;99.90
59660;DHT22;45534;52.690;6.268;2022-12-18T12:46:26;-0.40;99.90
59660;DHT22;45534;52.690;6.268;2022-12-18T12:49:12;-0.40;99.90
59660;DHT22;45534;52.690;6.268;2022-12-18T12:51:43;-0.40;99.90
59660;DHT22;45534;52.690;6.268;2022-12-18T12:54:19;-0.40;99.90
59660;DHT22;45534;52.690;6.268;2022-12-18T13:02:09;-0.30;99.90
59660;DHT22;45534;52.690;6.268;2022-12-18T13:07:38;-0.20;99.90
59660;DHT22;45534;52.690;6.268;2022-12-18T13:13:02;-0.20;99.90
59660;DHT22;45534;52.690;6.268;2022-12-18T13:18:20;-0.20;99.90
59660;DHT22;45534;52.690;6.268;2022-12-18T13:21:20;-0.20;99.90
59660;DHT22;45534;52.690;6.268;2022-12-18T13:23:47;-0.30;99.90
59660;DHT22;45534;52.690;6.268;2022-12-18T13:34:19;-0.30;99.90
59660;DHT22;45534;52.690;6.268;2022-12-18T13:36:45;-0.30;99.90
59660;DHT22;45534;52.690;6.268;2022-12-18T13:39:22;-0.30;99.90
59660;DHT22;45534;52.690;6.268;2022-12-18T13:41:52;-0.30;99.90
59660;DHT22;45534;52.690;6.268;2022-12-18T13:44:31;-0.30;99.90
59660;DHT22;45534;52.690;6.268;2022-12-18T13:46:59;-0.30;99.90
59660;DHT22;45534;52.690;6.268;2022-12-18T13:49:37;-0.30;99.90
59660;DHT22;45534;52.690;6.268;2022-12-18T13:52:36;-0.30;99.90
59660;DHT22;45534;52.690;6.268;2022-12-18T13:55:02;-0.20;99.90
59660;DHT22;45534;52.690;6.268;2022-12-18T13:57:36;-0.20;99.90
59660;DHT22;45534;52.690;6.268;2022-12-18T14:02:47;-0.20;99.90
59660;DHT22;45534;52.690;6.268;2022-12-18T14:05:25;-0.30;99.90
59660;DHT22;45534;52.690;6.268;2022-12-18T14:07:52;-0.30;99.90
59660;DHT22;45534;52.690;6.268;2022-12-18T14:10:19;-0.30;99.90
59660;DHT22;45534;52.690;6.268;2022-12-18T14:12:48;-0.30;99.90
59660;DHT22;45534;52.690;6.268;2022-12-18T14:18:01;-0.30;99.90
59660;DHT22;45534;52.690;6.268;2022-12-18T14:20:29;-0.30;99.90
59660;DHT22;45534;52.690;6.268;2022-12-18T14:22:56;-0.30;99.90
59660;DHT22;45534;52.690;6.268;2022-12-18T14:25:29;-0.30;99.90
59660;DHT22;45534;52.690;6.268;2022-12-18T14:28:12;-0.40;99.90
59660;DHT22;45534;52.690;6.268;2022-12-18T14:30:41;-0.40;99.90
59660;DHT22;45534;52.690;6.268;2022-12-18T14:33:15;-0.40;99.90
59660;DHT22;45534;52.690;6.268;2022-12-18T14:35:59;-0.40;99.90
59660;DHT22;45534;52.690;6.268;2022-12-18T14:38:35;-0.40;99.90
59660;DHT22;45534;52.690;6.268;2022-12-18T14:41:06;-0.40;99.90
59660;DHT22;45534;52.690;6.268;2022-12-18T14:43:37;-0.40;99.90
59660;DHT22;45534;52.690;6.268;2022-12-18T14:48:51;-0.40;99.90
59660;DHT22;45534;52.690;6.268;2022-12-18T14:51:25;-0.50;99.90
59660;DHT22;45534;52.690;6.268;2022-12-18T14:54:02;-0.50;99.90
59660;DHT22;45534;52.690;6.268;2022-12-18T14:56:34;-0.50;99.90
59660;DHT22;45534;52.690;6.268;2022-12-18T14:59:16;-0.50;99.90
59660;DHT22;45534;52.690;6.268;2022-12-18T15:04:31;-0.50;99.90
59660;DHT22;45534;52.690;6.268;2022-12-18T15:07:12;-0.50;99.90
59660;DHT22;45534;52.690;6.268;2022-12-18T15:09:40;-0.50;99.90
59660;DHT22;45534;52.690;6.268;2022-12-18T15:12:22;-0.50;99.90
59660;DHT22;45534;52.690;6.268;2022-12-18T15:14:50;-0.50;99.90
59660;DHT22;45534;52.690;6.268;2022-12-18T15:17:21;-0.50;99.90
59660;DHT22;45534;52.690;6.268;2022-12-18T15:19:48;-0.50;99.90
59660;DHT22;45534;52.690;6.268;2022-12-18T15:22:19;-0.50;99.90
59660;DHT22;45534;52.690;6.268;2022-12-18T15:24:45;-0.50;99.90
59660;DHT22;45534;52.690;6.268;2022-12-18T15:27:22;-0.50;99.90
59660;DHT22;45534;52.690;6.268;2022-12-18T15:32:26;-0.50;99.90
59660;DHT22;45534;52.690;6.268;2022-12-18T15:35:23;-0.50;99.90
59660;DHT22;45534;52.690;6.268;2022-12-18T15:37:48;-0.50;99.90
59660;DHT22;45534;52.690;6.268;2022-12-18T15:40:19;-0.50;99.90
59660;DHT22;45534;52.690;6.268;2022-12-18T15:42:45;-0.50;99.90
59660;DHT22;45534;52.690;6.268;2022-12-18T15:45:30;-0.50;99.90
59660;DHT22;45534;52.690;6.268;2022-12-18T15:47:56;-0.50;99.90
59660;DHT22;45534;52.690;6.268;2022-12-18T15:50:22;-0.50;99.90
59660;DHT22;45534;52.690;6.268;2022-12-18T15:52:50;-0.50;99.90
59660;DHT22;45534;52.690;6.268;2022-12-18T15:55:22;-0.50;99.90
59660;DHT22;45534;52.690;6.268;2022-12-18T15:58:07;-0.50;99.90
59660;DHT22;45534;52.690;6.268;2022-12-18T16:00:36;-0.50;99.90
59660;DHT22;45534;52.690;6.268;2022-12-18T16:03:02;-0.60;99.90
59660;DHT22;45534;52.690;6.268;2022-12-18T16:05:29;-0.50;99.90
59660;DHT22;45534;52.690;6.268;2022-12-18T16:07:55;-0.50;99.90
59660;DHT22;45534;52.690;6.268;2022-12-18T16:10:21;-0.60;99.90
59660;DHT22;45534;52.690;6.268;2022-12-18T16:12:47;-0.50;99.90
59660;DHT22;45534;52.690;6.268;2022-12-18T16:15:14;-0.50;99.90
59660;DHT22;45534;52.690;6.268;2022-12-18T16:17:44;-0.50;99.90
59660;DHT22;45534;52.690;6.268;2022-12-18T16:20:15;-0.40;99.90
59660;DHT22;45534;52.690;6.268;2022-12-18T16:22:42;-0.40;99.90
59660;DHT22;45534;52.690;6.268;2022-12-18T16:25:28;-0.40;99.90
59660;DHT22;45534;52.690;6.268;2022-12-18T16:27:54;-0.40;99.90
59660;DHT22;45534;52.690;6.268;2022-12-18T16:30:26;-0.40;99.90
59660;DHT22;45534;52.690;6.268;2022-12-18T16:32:57;-0.40;99.90
59660;DHT22;45534;52.690;6.268;2022-12-18T16:35:23;-0.40;99.90
59660;DHT22;45534;52.690;6.268;2022-12-18T16:37:49;-0.40;99.90
59660;DHT22;45534;52.690;6.268;2022-12-18T16:40:16;-0.40;99.90
59660;DHT22;45534;52.690;6.268;2022-12-18T16:42:44;-0.40;99.90
59660;DHT22;45534;52.690;6.268;2022-12-18T16:45:15;-0.40;99.90
59660;DHT22;45534;52.690;6.268;2022-12-18T16:47:41;-0.40;99.90
59660;DHT22;45534;52.690;6.268;2022-12-18T16:50:07;-0.40;99.90
59660;DHT22;45534;52.690;6.268;2022-12-18T16:52:34;-0.40;99.90
59660;DHT22;45534;52.690;6.268;2022-12-18T16:54:59;-0.40;99.90
59660;DHT22;45534;52.690;6.268;2022-12-18T16:57:25;-0.40;99.90
59660;DHT22;45534;52.690;6.268;2022-12-18T16:59:52;-0.40;99.90
59660;DHT22;45534;52.690;6.268;2022-12-18T17:02:20;-0.40;99.90
59660;DHT22;45534;52.690;6.268;2022-12-18T17:04:46;-0.30;99.90
59660;DHT22;45534;52.690;6.268;2022-12-18T17:07:13;-0.30;99.90
59660;DHT22;45534;52.690;6.268;2022-12-18T17:09:39;-0.30;99.90
59660;DHT22;45534;52.690;6.268;2022-12-18T17:12:05;-0.30;99.90
59660;DHT22;45534;52.690;6.268;2022-12-18T17:14:34;-0.40;99.90
59660;DHT22;45534;52.690;6.268;2022-12-18T17:16:59;-0.40;99.90
59660;DHT22;45534;52.690;6.268;2022-12-18T17:19:26;-0.40;99.90
59660;DHT22;45534;52.690;6.268;2022-12-18T17:21:52;-0.40;99.90